createdAt,value
2022-09-07T00:00:08.085Z,101634.34
2022-09-07T00:02:35.771Z,101638.47
2022-09-07T00:05:03.574Z,101631.22
2022-09-07T00:07:31.729Z,101617.59
2022-09-07T00:09:59.354Z,101608.47
2022-09-07T00:12:26.980Z,101597.09
2022-09-07T00:14:54.837Z,101601.47
2022-09-07T00:17:23.831Z,101616.53
2022-09-07T00:19:51.488Z,101608.69
2022-09-07T00:22:19.138Z,101607.84
2022-09-07T00:25:43.012Z,101608.47
2022-09-07T00:28:11.083Z,101591.53
2022-09-07T00:30:43.124Z,101590.69
2022-09-07T00:33:12.464Z,101587.19
2022-09-07T00:35:43.260Z,101588.00
2022-09-07T00:38:10.933Z,101585.94
2022-09-07T00:40:38.880Z,101590.06
2022-09-07T00:43:07.241Z,101589.03
2022-09-07T00:45:34.902Z,101596.28
2022-09-07T00:48:05.931Z,101582.22
2022-09-07T00:50:38.501Z,101592.75
2022-09-07T00:53:11.617Z,101594.19
2022-09-07T00:55:41.558Z,101605.78
2022-09-07T00:58:10.348Z,101610.97
2022-09-07T01:00:38.224Z,101605.59
2022-09-07T01:03:06.384Z,101607.22
2022-09-07T01:05:40.046Z,101604.75
2022-09-07T01:08:09.383Z,101584.91
2022-09-07T01:10:37.605Z,101581.38
2022-09-07T01:13:05.433Z,101573.72
2022-09-07T01:15:44.567Z,101572.91
2022-09-07T01:18:22.804Z,101578.47
2022-09-07T01:21:19.288Z,101569.59
2022-09-07T01:24:17.194Z,101573.50
2022-09-07T01:27:21.144Z,101573.31
2022-09-07T01:29:57.647Z,101574.34
2022-09-07T01:32:35.797Z,101570.44
2022-09-07T01:35:11.253Z,101566.69
2022-09-07T01:37:46.913Z,101560.28
2022-09-07T01:40:20.341Z,101555.75
2022-09-07T01:42:55.328Z,101550.78
2022-09-07T01:45:28.904Z,101545.59
2022-09-07T01:47:59.516Z,101547.69
2022-09-07T01:50:32.044Z,101544.78
2022-09-07T01:53:07.509Z,101546.66
2022-09-07T01:55:40.321Z,101535.06
2022-09-07T01:58:13.408Z,101553.66
2022-09-07T02:00:47.019Z,101545.84
2022-09-07T02:03:16.620Z,101537.13
2022-09-07T02:05:47.936Z,101547.69
2022-09-07T02:08:20.245Z,101543.16
2022-09-07T02:10:52.537Z,101535.91
2022-09-07T02:13:25.189Z,101526.19
2022-09-07T02:16:00.318Z,101532.16
2022-09-07T02:18:30.398Z,101530.31
2022-09-07T02:21:00.579Z,101518.72
2022-09-07T02:23:33.665Z,101521.41
2022-09-07T02:26:04.045Z,101514.00
2022-09-07T02:28:34.634Z,101510.88
2022-09-07T02:31:03.919Z,101504.47
2022-09-07T02:33:32.216Z,101500.97
2022-09-07T02:36:01.532Z,101495.78
2022-09-07T02:38:29.498Z,101496.63
2022-09-07T02:40:59.594Z,101496.00
2022-09-07T02:43:30.217Z,101487.94
2022-09-07T02:46:25.863Z,101492.25
2022-09-07T02:49:05.382Z,101492.50
2022-09-07T02:51:41.247Z,101496.84
2022-09-07T02:54:28.689Z,101493.94
2022-09-07T02:57:07.180Z,101491.25
2022-09-07T02:59:46.239Z,101488.78
2022-09-07T03:02:23.907Z,101493.31
2022-09-07T03:04:59.398Z,101483.41
2022-09-07T03:07:35.788Z,101482.56
2022-09-07T03:10:05.492Z,101479.88
2022-09-07T03:12:41.669Z,101487.13
2022-09-07T03:15:12.187Z,101487.34
2022-09-07T03:17:42.228Z,101482.16
2022-09-07T03:20:10.932Z,101483.19
2022-09-07T03:22:39.154Z,101486.72
2022-09-07T03:25:08.213Z,101491.44
2022-09-07T03:27:35.993Z,101479.84
2022-09-07T03:30:04.614Z,101473.88
2022-09-07T03:32:33.556Z,101473.25
2022-09-07T03:35:03.764Z,101472.88
2022-09-07T03:37:31.385Z,101477.59
2022-09-07T03:39:59.058Z,101472.22
2022-09-07T03:42:26.733Z,101486.31
2022-09-07T03:44:54.357Z,101478.25
2022-09-07T03:47:21.977Z,101479.03
2022-09-07T03:49:51.257Z,101475.56
2022-09-07T03:52:20.386Z,101481.72
2022-09-07T03:54:48.037Z,101482.78
2022-09-07T03:57:15.930Z,101480.28
2022-09-07T03:59:43.573Z,101473.47
2022-09-07T04:02:11.407Z,101467.50
2022-09-07T04:04:39.178Z,101471.63
2022-09-07T04:07:06.906Z,101460.28
2022-09-07T04:09:36.001Z,101462.31
2022-09-07T04:12:04.163Z,101453.88
2022-09-07T04:14:31.824Z,101453.88
2022-09-07T04:16:59.543Z,101451.19
2022-09-07T04:19:27.300Z,101452.22
2022-09-07T04:21:54.912Z,101453.03
2022-09-07T04:24:22.565Z,101447.25
2022-09-07T04:26:52.130Z,101441.47
2022-09-07T04:29:19.769Z,101437.75
2022-09-07T04:31:47.404Z,101434.25
2022-09-07T04:34:15.576Z,101423.91
2022-09-07T04:36:43.213Z,101430.72
2022-09-07T04:39:12.096Z,101414.16
2022-09-07T04:41:39.807Z,101419.31
2022-09-07T04:44:08.816Z,101420.16
2022-09-07T04:46:37.763Z,101422.00
2022-09-07T04:49:08.185Z,101412.91
2022-09-07T04:51:36.651Z,101398.22
2022-09-07T04:54:05.460Z,101401.16
2022-09-07T04:56:33.769Z,101402.59
2022-09-07T04:59:02.708Z,101394.28
2022-09-07T05:01:31.862Z,101408.13
2022-09-07T05:04:01.057Z,101409.56
2022-09-07T05:06:29.210Z,101408.53
2022-09-07T05:08:57.363Z,101406.28
2022-09-07T05:11:29.141Z,101405.44
2022-09-07T05:13:58.019Z,101408.75
2022-09-07T05:16:26.115Z,101404.00
2022-09-07T05:18:57.332Z,101414.53
2022-09-07T05:21:27.436Z,101419.25
2022-09-07T05:23:56.952Z,101416.56
2022-09-07T05:26:26.812Z,101427.94
2022-09-07T05:31:42.688Z,101420.44
2022-09-07T05:36:59.381Z,101432.22
2022-09-07T05:39:27.583Z,101430.34
2022-09-07T05:41:55.246Z,101434.25
2022-09-07T05:47:10.863Z,101459.47
2022-09-07T05:49:39.869Z,101469.38
2022-09-07T05:52:07.574Z,101469.75
2022-09-07T05:54:35.232Z,101479.66
2022-09-07T05:57:03.455Z,101478.81
2022-09-07T05:59:31.123Z,101471.97
2022-09-07T06:01:58.870Z,101454.56
2022-09-07T06:04:26.793Z,101442.97
2022-09-07T06:07:21.512Z,101447.94
2022-09-07T06:12:31.193Z,101481.84
2022-09-07T06:15:00.916Z,101483.69
2022-09-07T06:17:29.663Z,101484.88
2022-09-07T06:19:57.293Z,101474.28
2022-09-07T06:22:30.582Z,101451.69
2022-09-07T06:24:58.736Z,101452.53
2022-09-07T06:27:26.388Z,101463.03
2022-09-07T06:29:54.009Z,101464.25
2022-09-07T06:35:10.541Z,101451.66
2022-09-07T06:37:39.691Z,101442.38
2022-09-07T06:40:10.371Z,101441.34
2022-09-07T06:42:38.156Z,101442.97
2022-09-07T06:45:06.847Z,101456.22
2022-09-07T06:47:34.627Z,101457.34
2022-09-07T06:50:02.294Z,101459.63
2022-09-07T06:55:19.112Z,101451.31
2022-09-07T06:57:46.786Z,101458.59
2022-09-07T07:00:15.285Z,101462.66
2022-09-07T07:02:42.927Z,101454.72
2022-09-07T07:05:11.037Z,101445.53
2022-09-07T07:07:38.716Z,101443.63
2022-09-07T07:10:07.160Z,101444.19
2022-09-07T07:15:02.828Z,101435.94
2022-09-07T07:17:30.449Z,101438.50
2022-09-07T07:19:58.126Z,101443.41
2022-09-07T07:25:13.433Z,101441.28
2022-09-07T07:27:42.424Z,101441.72
2022-09-07T07:30:10.990Z,101430.56
2022-09-07T07:32:38.835Z,101433.59
2022-09-07T07:35:08.752Z,101429.31
2022-09-07T07:37:37.056Z,101427.06
2022-09-07T07:40:22.771Z,101423.81
2022-09-07T07:42:54.457Z,101437.28
2022-09-07T07:48:12.644Z,101430.56
2022-09-07T07:50:40.228Z,101435.56
2022-09-07T07:55:58.313Z,101437.59
2022-09-07T07:58:27.972Z,101445.63
2022-09-07T08:00:56.757Z,101448.47
2022-09-07T08:03:25.950Z,101452.19
2022-09-07T08:05:53.858Z,101443.66
2022-09-07T08:08:22.915Z,101430.00
2022-09-07T08:10:50.689Z,101438.69
2022-09-07T08:13:19.056Z,101433.41
2022-09-07T08:15:48.031Z,101435.78
2022-09-07T08:18:17.091Z,101444.59
2022-09-07T08:20:44.838Z,101447.50
2022-09-07T08:23:12.363Z,101451.22
2022-09-07T08:25:40.012Z,101462.06
2022-09-07T08:28:07.534Z,101471.50
2022-09-07T08:30:35.044Z,101472.22
2022-09-07T08:33:03.939Z,101467.88
2022-09-07T08:35:31.434Z,101463.97
2022-09-07T08:37:58.943Z,101481.38
2022-09-07T08:40:26.450Z,101494.16
2022-09-07T08:43:09.013Z,101481.28
2022-09-07T08:45:40.816Z,101475.06
2022-09-07T08:48:15.068Z,101480.31
2022-09-07T08:50:53.220Z,101469.75
2022-09-07T08:53:22.315Z,101470.44
2022-09-07T08:55:53.832Z,101471.50
2022-09-07T08:58:48.337Z,101469.00
2022-09-07T09:04:21.439Z,101471.13
2022-09-07T09:07:08.893Z,101467.84
2022-09-07T09:09:58.837Z,101464.50
2022-09-07T09:12:37.527Z,101474.66
2022-09-07T09:15:15.992Z,101470.19
2022-09-07T09:17:48.491Z,101457.66
2022-09-07T09:20:24.218Z,101447.34
2022-09-07T09:22:52.685Z,101456.06
2022-09-07T09:25:22.492Z,101445.84
2022-09-07T09:27:50.645Z,101447.13
2022-09-07T09:30:20.120Z,101436.31
2022-09-07T09:32:50.052Z,101422.09
2022-09-07T09:35:28.101Z,101417.00
2022-09-07T09:37:57.513Z,101417.63
2022-09-07T09:40:28.284Z,101416.91
2022-09-07T09:43:01.746Z,101411.22
2022-09-07T09:46:12.256Z,101406.66
2022-09-07T09:48:22.591Z,101403.13
2022-09-07T09:53:54.298Z,101396.91
2022-09-07T09:56:22.780Z,101389.28
2022-09-07T09:59:56.064Z,101388.19
2022-09-07T10:04:32.976Z,101380.75
2022-09-07T10:07:09.803Z,101380.63
2022-09-07T10:09:40.411Z,101380.66
2022-09-07T10:12:21.535Z,101381.38
2022-09-07T10:14:49.307Z,101378.13
2022-09-07T10:17:24.442Z,101380.09
2022-09-07T10:19:52.565Z,101374.22
2022-09-07T10:22:30.748Z,101381.81
2022-09-07T10:24:58.567Z,101376.81
2022-09-07T10:27:31.698Z,101377.25
2022-09-07T10:29:59.834Z,101377.66
2022-09-07T10:32:43.169Z,101383.69
2022-09-07T10:35:18.948Z,101383.16
2022-09-07T10:37:54.517Z,101374.81
2022-09-07T10:40:29.930Z,101378.38
2022-09-07T10:43:22.801Z,101376.59
2022-09-07T10:46:55.871Z,101371.09
2022-09-07T10:49:13.479Z,101377.44
2022-09-07T10:51:47.826Z,101375.69
2022-09-07T10:54:30.269Z,101372.16
2022-09-07T10:57:06.507Z,101378.72
2022-09-07T11:05:50.581Z,101379.22
2022-09-07T11:08:34.330Z,101362.63
2022-09-07T11:14:20.034Z,101360.53
2022-09-07T11:16:53.502Z,101342.50
2022-09-07T11:19:42.295Z,101333.94
2022-09-07T11:22:23.694Z,101324.78
2022-09-07T11:27:51.234Z,101310.53
2022-09-07T11:30:22.806Z,101320.50
2022-09-07T11:32:57.308Z,101325.81
2022-09-07T11:35:32.901Z,101331.69
2022-09-07T11:38:06.277Z,101332.78
2022-09-07T11:40:37.177Z,101336.34
2022-09-07T11:43:17.834Z,101342.44
2022-09-07T11:45:50.354Z,101332.22
2022-09-07T11:48:22.290Z,101336.44
2022-09-07T11:50:53.148Z,101339.59
2022-09-07T11:53:25.653Z,101342.09
2022-09-07T11:55:58.398Z,101343.03
2022-09-07T11:58:44.191Z,101337.75
2022-09-07T12:01:25.341Z,101347.59
2022-09-07T12:04:24.737Z,101357.34
2022-09-07T12:07:08.751Z,101360.53
2022-09-07T12:09:50.149Z,101356.47
2022-09-07T12:12:42.035Z,101347.63
2022-09-07T12:15:24.347Z,101343.84
2022-09-07T12:18:07.506Z,101341.59
2022-09-07T12:20:41.150Z,101341.84
2022-09-07T12:23:23.084Z,101336.06
2022-09-07T12:25:51.960Z,101339.81
2022-09-07T12:28:58.117Z,101335.84
2022-09-07T12:34:51.640Z,101334.31
2022-09-07T12:37:41.661Z,101333.84
2022-09-07T12:40:57.737Z,101325.44
2022-09-07T12:43:53.841Z,101324.59
2022-09-07T12:46:44.853Z,101330.06
2022-09-07T12:49:45.159Z,101325.22
2022-09-07T12:52:37.649Z,101323.56
2022-09-07T12:55:27.875Z,101322.50
2022-09-07T12:58:10.553Z,101319.53
2022-09-07T13:00:54.833Z,101312.97
2022-09-07T13:03:56.629Z,101314.06
2022-09-07T13:09:32.029Z,101313.94
2022-09-07T13:12:00.894Z,101316.84
2022-09-07T13:14:30.278Z,101311.00
2022-09-07T13:17:28.715Z,101311.16
2022-09-07T13:20:29.987Z,101318.72
2022-09-07T13:23:19.813Z,101315.78
2022-09-07T13:25:57.416Z,101316.97
2022-09-07T13:28:37.306Z,101322.34
2022-09-07T13:31:24.622Z,101312.38
2022-09-07T13:33:53.064Z,101306.47
2022-09-07T13:36:25.542Z,101314.84
2022-09-07T13:38:54.868Z,101297.69
2022-09-07T13:41:27.588Z,101297.00
2022-09-07T13:44:01.746Z,101290.50
2022-09-07T13:46:44.445Z,101293.94
2022-09-07T13:49:24.797Z,101296.25
2022-09-07T13:51:59.790Z,101303.66
2022-09-07T13:54:39.559Z,101304.66
2022-09-07T13:57:18.444Z,101304.59
2022-09-07T13:59:49.798Z,101296.53
2022-09-07T14:02:23.687Z,101296.84
2022-09-07T14:04:52.813Z,101300.19
2022-09-07T14:07:23.068Z,101298.59
2022-09-07T14:10:05.341Z,101305.00
2022-09-07T14:12:43.415Z,101299.41
2022-09-07T14:15:20.990Z,101297.44
2022-09-07T14:17:49.073Z,101313.34
2022-09-07T14:20:18.640Z,101309.88
2022-09-07T14:22:50.625Z,101305.56
2022-09-07T14:25:22.163Z,101314.63
2022-09-07T14:27:51.194Z,101310.28
2022-09-07T14:30:25.872Z,101312.59
2022-09-07T14:32:55.281Z,101309.16
2022-09-07T14:35:25.486Z,101297.56
2022-09-07T14:37:54.007Z,101309.09
2022-09-07T14:40:23.810Z,101307.97
2022-09-07T14:42:55.184Z,101302.13
2022-09-07T14:45:34.507Z,101298.13
2022-09-07T14:48:13.305Z,101304.56
2022-09-07T14:50:43.254Z,101302.38
2022-09-07T14:56:10.829Z,101299.66
2022-09-07T14:58:39.692Z,101288.28
2022-09-07T15:04:18.788Z,101293.84
2022-09-07T15:07:02.320Z,101277.09
2022-09-07T15:09:35.944Z,101285.44
2022-09-07T15:12:06.387Z,101288.97
2022-09-07T15:14:36.255Z,101290.00
2022-09-07T15:19:51.661Z,101286.25
2022-09-07T15:22:21.424Z,101278.16
2022-09-07T15:24:49.200Z,101283.78
2022-09-07T15:27:20.784Z,101283.44
2022-09-07T15:29:49.620Z,101289.00
2022-09-07T15:32:18.190Z,101275.09
2022-09-07T15:34:45.994Z,101279.88
2022-09-07T15:40:01.882Z,101276.44
2022-09-07T15:45:19.014Z,101267.19
2022-09-07T15:47:52.047Z,101275.47
2022-09-07T15:50:23.101Z,101269.72
2022-09-07T15:52:50.960Z,101273.47
2022-09-07T15:55:18.604Z,101269.94
2022-09-07T15:57:54.479Z,101265.66
2022-09-07T16:00:29.046Z,101267.38
2022-09-07T16:03:12.165Z,101271.41
2022-09-07T16:05:41.476Z,101273.75
2022-09-07T16:11:05.246Z,101263.91
2022-09-07T16:13:33.458Z,101261.03
2022-09-07T16:16:06.130Z,101263.38
2022-09-07T16:18:34.779Z,101266.09
2022-09-07T16:21:06.017Z,101256.56
2022-09-07T16:23:33.576Z,101261.91
2022-09-07T16:26:04.115Z,101254.19
2022-09-07T16:28:32.201Z,101251.81
2022-09-07T16:30:59.853Z,101257.63
2022-09-07T16:33:36.089Z,101258.63
2022-09-07T16:36:06.489Z,101244.25
2022-09-07T16:38:50.122Z,101253.81
2022-09-07T16:41:20.728Z,101255.44
2022-09-07T16:43:48.415Z,101250.38
2022-09-07T16:46:18.193Z,101254.34
2022-09-07T16:48:47.598Z,101243.78
2022-09-07T16:51:18.675Z,101249.69
2022-09-07T16:53:46.422Z,101238.31
2022-09-07T16:56:17.035Z,101242.06
2022-09-07T16:58:46.545Z,101240.00
2022-09-07T17:01:17.866Z,101246.25
2022-09-07T17:03:49.261Z,101248.63
2022-09-07T17:06:18.118Z,101254.44
2022-09-07T17:08:45.653Z,101255.41
2022-09-07T17:11:15.696Z,101248.69
2022-09-07T17:13:43.959Z,101242.38
2022-09-07T17:16:13.436Z,101243.91
2022-09-07T17:21:33.292Z,101242.91
2022-09-07T17:24:04.170Z,101242.91
2022-09-07T17:26:32.956Z,101243.28
2022-09-07T17:29:01.323Z,101240.16
2022-09-07T17:34:18.515Z,101244.06
2022-09-07T17:36:47.677Z,101243.97
2022-09-07T17:39:17.745Z,101240.56
2022-09-07T17:41:47.095Z,101245.88
2022-09-07T17:44:14.628Z,101246.84
2022-09-07T17:46:42.215Z,101246.59
2022-09-07T17:49:12.223Z,101256.25
2022-09-07T17:51:40.211Z,101248.81
2022-09-07T17:54:12.788Z,101249.75
2022-09-07T17:56:41.683Z,101256.34
2022-09-07T18:01:57.534Z,101261.97
2022-09-07T18:04:25.471Z,101263.50
2022-09-07T18:06:54.393Z,101262.53
2022-09-07T18:09:23.361Z,101274.88
2022-09-07T18:11:51.287Z,101277.47
2022-09-07T18:14:19.588Z,101276.47
2022-09-07T18:16:49.817Z,101281.75
2022-09-07T18:19:18.649Z,101280.22
2022-09-07T18:21:47.711Z,101284.44
2022-09-07T18:24:17.629Z,101280.78
2022-09-07T18:26:52.441Z,101280.19
2022-09-07T18:29:32.379Z,101283.81
2022-09-07T18:32:02.331Z,101287.56
2022-09-07T18:34:30.665Z,101279.69
2022-09-07T18:36:59.107Z,101281.59
2022-09-07T18:39:26.799Z,101287.44
2022-09-07T18:41:56.509Z,101291.75
2022-09-07T18:47:21.102Z,101283.66
2022-09-07T18:49:49.753Z,101289.31
2022-09-07T18:55:09.778Z,101287.50
2022-09-07T18:57:41.541Z,101289.81
2022-09-07T19:00:12.004Z,101287.13
2022-09-07T19:02:39.620Z,101283.84
2022-09-07T19:07:56.562Z,101273.72
2022-09-07T19:10:24.197Z,101283.69
2022-09-07T19:12:53.100Z,101290.34
2022-09-07T19:15:22.447Z,101291.41
2022-09-07T19:17:50.250Z,101286.00
2022-09-07T19:20:18.383Z,101288.69
2022-09-07T19:22:46.315Z,101289.97
2022-09-07T19:25:13.869Z,101289.97
2022-09-07T19:27:41.397Z,101291.63
2022-09-07T19:30:11.508Z,101286.25
2022-09-07T19:32:39.015Z,101291.63
2022-09-07T19:35:07.095Z,101290.34
2022-09-07T19:37:34.708Z,101289.53
2022-09-07T19:40:02.530Z,101293.63
2022-09-07T19:42:30.406Z,101291.75
2022-09-07T19:44:57.947Z,101298.56
2022-09-07T19:47:29.137Z,101295.66
2022-09-07T19:49:56.928Z,101298.13
2022-09-07T19:52:24.501Z,101287.34
2022-09-07T19:54:52.093Z,101297.31
2022-09-07T19:57:19.800Z,101287.13
2022-09-07T19:59:47.404Z,101299.56
2022-09-07T20:02:14.938Z,101290.41
2022-09-07T20:04:43.888Z,101298.50
2022-09-07T20:07:12.696Z,101297.03
2022-09-07T20:09:40.208Z,101299.72
2022-09-07T20:12:08.973Z,101287.66
2022-09-07T20:14:36.901Z,101288.47
2022-09-07T20:17:04.464Z,101299.72
2022-09-07T20:19:31.973Z,101297.03
2022-09-07T20:22:00.889Z,101297.59
2022-09-07T20:24:28.400Z,101288.47
2022-09-07T20:26:55.917Z,101292.81
2022-09-07T20:29:27.900Z,101292.59
2022-09-07T20:31:56.705Z,101287.19
2022-09-07T20:34:24.374Z,101286.97
2022-09-07T20:36:52.254Z,101289.69
2022-09-07T20:39:22.074Z,101279.69
2022-09-07T20:41:49.688Z,101281.59
2022-09-07T20:44:17.664Z,101278.28
2022-09-07T20:46:45.477Z,101280.97
2022-09-07T20:49:13.028Z,101277.22
2022-09-07T20:51:40.971Z,101278.06
2022-09-07T20:54:08.581Z,101282.63
2022-09-07T20:56:37.437Z,101280.97
2022-09-07T20:59:05.219Z,101281.78
2022-09-07T21:01:34.990Z,101278.50
2022-09-07T21:04:03.873Z,101277.69
2022-09-07T21:06:32.805Z,101291.19
2022-09-07T21:09:00.783Z,101297.16
2022-09-07T21:11:31.033Z,101286.81
2022-09-07T21:14:01.324Z,101284.13
2022-09-07T21:16:29.339Z,101289.75
2022-09-07T21:19:00.776Z,101279.16
2022-09-07T21:21:30.114Z,101287.50
2022-09-07T21:23:59.660Z,101284.19
2022-09-07T21:26:28.416Z,101279.03
2022-09-07T21:28:57.026Z,101287.34
2022-09-07T21:31:26.479Z,101292.97
2022-09-07T21:33:55.417Z,101283.47
2022-09-07T21:36:23.941Z,101289.91
2022-09-07T21:38:51.634Z,101288.13
2022-09-07T21:41:21.416Z,101286.25
2022-09-07T21:43:49.069Z,101285.41
2022-09-07T21:46:18.540Z,101277.78
2022-09-07T21:48:47.473Z,101277.19
2022-09-07T21:51:15.228Z,101277.66
2022-09-07T21:53:43.485Z,101276.00
2022-09-07T21:56:12.869Z,101276.25
2022-09-07T21:58:40.895Z,101264.72
2022-09-07T22:01:13.264Z,101274.91
2022-09-07T22:03:41.695Z,101275.72
2022-09-07T22:06:11.357Z,101278.63
2022-09-07T22:08:41.157Z,101265.03
2022-09-07T22:11:10.668Z,101272.75
2022-09-07T22:13:38.697Z,101274.03
2022-09-07T22:16:07.269Z,101276.09
2022-09-07T22:18:36.760Z,101272.81
2022-09-07T22:21:06.840Z,101277.38
2022-09-07T22:23:39.646Z,101280.06
2022-09-07T22:26:08.108Z,101283.59
2022-09-07T22:28:36.544Z,101275.50
2022-09-07T22:31:12.480Z,101277.38
2022-09-07T22:33:40.925Z,101275.97
2022-09-07T22:36:13.622Z,101269.97
2022-09-07T22:38:43.853Z,101271.84
2022-09-07T22:41:13.704Z,101269.41
2022-09-07T22:43:41.287Z,101270.44
2022-09-07T22:46:09.067Z,101268.19
2022-09-07T22:48:36.784Z,101268.19
2022-09-07T22:51:05.792Z,101257.03
2022-09-07T22:53:35.474Z,101254.59
2022-09-07T22:56:08.877Z,101251.50
2022-09-07T22:58:37.137Z,101247.41
2022-09-07T23:01:05.978Z,101244.31
2022-09-07T23:03:35.440Z,101236.06
2022-09-07T23:06:03.489Z,101233.63
2022-09-07T23:08:31.472Z,101233.47
2022-09-07T23:11:04.862Z,101230.84
2022-09-07T23:13:34.266Z,101230.06
2022-09-07T23:16:06.048Z,101223.56
2022-09-07T23:18:34.646Z,101232.72
2022-09-07T23:21:02.871Z,101237.13
2022-09-07T23:23:30.896Z,101236.75
2022-09-07T23:26:01.744Z,101239.09
2022-09-07T23:28:29.918Z,101244.69
2022-09-07T23:30:59.926Z,101234.16
2022-09-07T23:33:28.271Z,101235.63
2022-09-07T23:35:57.494Z,101226.53
2022-09-07T23:38:25.915Z,101230.25
2022-09-07T23:40:54.482Z,101225.69
2022-09-07T23:43:22.085Z,101223.59
2022-09-07T23:45:49.633Z,101222.75
2022-09-07T23:48:18.507Z,101222.16
2022-09-07T23:50:46.497Z,101225.91
2022-09-07T23:53:14.610Z,101221.78
2022-09-07T23:55:42.613Z,101228.19
2022-09-07T23:58:10.676Z,101219.16
